Time;durP1;ratioP1;P1;durP2;ratioP2;P2;SDS_P1;SDS_P2;PMS_P1;PMS_P2;Temp;Humidity;BMP_temperature;BMP_pressure;BME280_temperature;BME280_humidity;BME280_pressure;Samples;Min_cycle;Max_cycle;Signal;HPM_P1;HPM_P2
2024/03/24 00:01:40;;;;;;;1.90;1.00;;;23.10;55.10;;;;;;5012756;28;20268;-68
2024/03/24 00:04:06;;;;;;;1.47;1.10;;;23.10;55.10;;;;;;5012829;28;20721;-70
2024/03/24 00:06:31;;;;;;;1.97;1.00;;;23.10;55.60;;;;;;5012745;28;20674;-69
2024/03/24 00:08:57;;;;;;;1.37;1.10;;;23.10;55.10;;;;;;5012595;28;20181;-69
2024/03/24 00:11:23;;;;;;;1.60;1.00;;;23.10;55.10;;;;;;5012593;28;20199;-69
2024/03/24 00:13:48;;;;;;;1.40;0.93;;;23.10;55.10;;;;;;5012840;28;20173;-70
2024/03/24 00:16:14;;;;;;;1.30;1.00;;;23.10;55.10;;;;;;5012655;28;20204;-70
2024/03/24 00:18:39;;;;;;;1.77;1.20;;;23.10;55.10;;;;;;5012547;28;20703;-70
2024/03/24 00:21:05;;;;;;;1.37;1.00;;;23.10;55.10;;;;;;5012958;28;20208;-68
2024/03/24 00:23:30;;;;;;;1.50;1.03;;;23.10;55.10;;;;;;5012288;28;20180;-69
2024/03/24 00:25:56;;;;;;;1.10;0.90;;;23.10;55.10;;;;;;5011845;28;20189;-69
2024/03/24 00:28:22;;;;;;;1.23;1.13;;;23.10;55.10;;;;;;5012854;28;20782;-70
2024/03/24 00:30:47;;;;;;;1.53;1.00;;;23.10;55.10;;;;;;5012769;28;20215;-68
2024/03/24 00:33:13;;;;;;;1.83;1.10;;;23.10;55.10;;;;;;5012393;28;20176;-69
2024/03/24 00:35:38;;;;;;;1.80;1.20;;;23.10;55.10;;;;;;5012603;28;20231;-68
2024/03/24 00:38:04;;;;;;;1.20;1.00;;;23.10;55.10;;;;;;5012301;28;20243;-69
2024/03/24 00:40:30;;;;;;;1.30;0.90;;;23.10;55.10;;;;;;5011988;28;20189;-69
2024/03/24 00:42:56;;;;;;;1.20;1.03;;;23.10;55.10;;;;;;4994755;28;20200;-69
2024/03/24 00:45:21;;;;;;;1.10;1.00;;;23.10;55.10;;;;;;5012457;28;20443;-70
2024/03/24 00:47:47;;;;;;;1.30;1.10;;;23.10;55.10;;;;;;5012221;28;20180;-69
2024/03/24 00:50:14;;;;;;;1.63;1.07;;;23.10;55.10;;;;;;5012017;28;20207;-70
2024/03/24 00:52:39;;;;;;;1.37;1.00;;;23.10;55.10;;;;;;5012345;28;20171;-69
2024/03/24 00:55:05;;;;;;;1.17;0.90;;;23.10;55.10;;;;;;5011842;28;20970;-68
2024/03/24 00:57:31;;;;;;;1.10;1.00;;;23.10;55.10;;;;;;5012082;28;20254;-69
2024/03/24 00:59:56;;;;;;;1.20;0.97;;;23.10;55.10;;;;;;5011957;28;20220;-68
2024/03/24 01:02:22;;;;;;;2.07;1.10;;;23.10;55.10;;;;;;5013010;28;20168;-68
2024/03/24 01:04:48;;;;;;;1.40;0.90;;;23.10;55.10;;;;;;5012097;28;20571;-68
2024/03/24 01:07:13;;;;;;;1.50;1.13;;;23.10;55.10;;;;;;5012185;28;20259;-69
2024/03/24 01:09:39;;;;;;;1.63;1.10;;;23.10;55.10;;;;;;5011884;28;20228;-69
2024/03/24 01:12:05;;;;;;;1.50;1.00;;;23.10;55.10;;;;;;5012272;28;20192;-69
2024/03/24 01:14:31;;;;;;;1.20;0.83;;;23.10;55.10;;;;;;5011894;28;20191;-69
2024/03/24 01:16:57;;;;;;;1.50;0.80;;;23.10;55.10;;;;;;5012080;28;20411;-68
2024/03/24 01:19:23;;;;;;;1.97;1.30;;;23.10;55.10;;;;;;5012340;28;20234;-68
2024/03/24 01:21:48;;;;;;;1.30;1.00;;;23.10;55.00;;;;;;4994385;28;20411;-71
2024/03/24 01:24:14;;;;;;;1.30;1.00;;;23.10;55.00;;;;;;5011866;28;20183;-69
2024/03/24 01:26:40;;;;;;;1.83;1.10;;;23.10;55.00;;;;;;5012121;28;20176;-69
2024/03/24 01:29:06;;;;;;;1.20;1.00;;;23.10;55.00;;;;;;5011890;28;20184;-68
2024/03/24 01:31:32;;;;;;;1.40;1.00;;;23.10;55.00;;;;;;5012019;28;20179;-69
2024/03/24 01:33:58;;;;;;;1.10;0.90;;;23.10;55.00;;;;;;5011732;28;20427;-68
2024/03/24 01:36:23;;;;;;;1.37;1.10;;;23.10;55.10;;;;;;5011793;28;20185;-69
2024/03/24 01:38:49;;;;;;;1.10;1.00;;;23.10;55.10;;;;;;5014665;28;20175;-68
2024/03/24 01:41:14;;;;;;;1.40;1.30;;;23.10;55.10;;;;;;5015915;28;20270;-68
2024/03/24 01:43:40;;;;;;;1.63;1.00;;;23.10;55.00;;;;;;5015484;28;20259;-69
2024/03/24 01:46:06;;;;;;;1.87;1.07;;;23.10;55.10;;;;;;5015868;28;20176;-67
2024/03/24 01:48:31;;;;;;;1.30;1.00;;;23.10;55.10;;;;;;5015586;28;20180;-68
2024/03/24 01:50:57;;;;;;;2.10;1.10;;;23.10;55.10;;;;;;5015187;28;20698;-69
2024/03/24 01:53:23;;;;;;;1.73;1.00;;;23.10;55.10;;;;;;5015504;28;20230;-68
2024/03/24 01:55:49;;;;;;;1.40;1.10;;;23.10;55.10;;;;;;4997627;28;20204;-69
2024/03/24 01:58:15;;;;;;;1.43;0.90;;;23.10;55.10;;;;;;5015819;28;20469;-68
2024/03/24 02:00:41;;;;;;;1.30;1.10;;;23.10;55.10;;;;;;5015973;28;20196;-69
2024/03/24 02:03:06;;;;;;;2.47;1.07;;;23.10;55.10;;;;;;4997755;28;20271;-69
2024/03/24 02:05:32;;;;;;;1.40;1.00;;;23.10;55.10;;;;;;5015378;28;20518;-68
2024/03/24 02:07:58;;;;;;;1.10;0.90;;;23.10;55.10;;;;;;5015579;28;20203;-69
2024/03/24 02:10:23;;;;;;;1.20;0.90;;;23.10;55.10;;;;;;5015281;28;20203;-68
2024/03/24 02:12:49;;;;;;;1.50;0.93;;;23.10;55.10;;;;;;5015313;28;20251;-70
2024/03/24 02:15:15;;;;;;;2.07;1.17;;;23.10;55.10;;;;;;5015191;28;20797;-69
2024/03/24 02:17:41;;;;;;;1.70;1.00;;;23.10;55.10;;;;;;5015391;28;20165;-69
2024/03/24 02:20:08;;;;;;;2.07;0.80;;;23.10;55.10;;;;;;5015207;28;20215;-70
2024/03/24 02:22:38;;;;;;;1.40;0.90;;;23.10;55.10;;;;;;5015194;28;20454;-69
2024/03/24 02:25:07;;;;;;;1.20;0.90;;;23.10;55.00;;;;;;5014958;28;20510;-69
2024/03/24 02:27:32;;;;;;;1.10;0.90;;;23.10;55.00;;;;;;5015198;28;20514;-67
2024/03/24 02:29:58;;;;;;;1.20;0.90;;;23.10;55.10;;;;;;5014989;28;20526;-68
2024/03/24 02:32:25;;;;;;;1.00;0.80;;;23.00;55.00;;;;;;5015016;28;20198;-68
2024/03/24 02:34:51;;;;;;;1.30;1.10;;;23.00;55.00;;;;;;5014783;28;20667;-67
2024/03/24 02:37:16;;;;;;;4.53;1.30;;;23.00;55.00;;;;;;5014775;28;20412;-68
2024/03/24 02:39:42;;;;;;;1.10;0.80;;;23.00;55.00;;;;;;5014850;28;20268;-68
2024/03/24 02:42:08;;;;;;;1.10;0.90;;;23.00;55.00;;;;;;5014573;28;20164;-68
2024/03/24 02:44:35;;;;;;;1.00;0.73;;;23.00;55.00;;;;;;5014634;28;20192;-68
2024/03/24 02:47:01;;;;;;;1.40;0.93;;;23.00;55.00;;;;;;5014742;28;20180;-69
2024/03/24 02:49:26;;;;;;;1.00;0.80;;;23.00;55.00;;;;;;5013992;28;20466;-68
2024/03/24 02:51:52;;;;;;;1.30;1.07;;;23.00;55.00;;;;;;5014383;28;20203;-69
2024/03/24 02:54:17;;;;;;;1.30;0.90;;;23.00;55.00;;;;;;5014208;28;20667;-68
2024/03/24 02:56:43;;;;;;;2.37;1.07;;;23.00;55.00;;;;;;5014539;28;20168;-69
2024/03/24 02:59:09;;;;;;;1.00;0.80;;;23.00;55.00;;;;;;5014299;28;20177;-69
2024/03/24 03:01:34;;;;;;;1.00;0.70;;;23.00;55.00;;;;;;5014046;28;20203;-69
2024/03/24 03:04:00;;;;;;;1.33;0.80;;;23.00;55.00;;;;;;5014294;28;20210;-69
2024/03/24 03:06:26;;;;;;;1.10;0.80;;;23.00;55.00;;;;;;5014070;28;20165;-68
2024/03/24 03:08:51;;;;;;;1.20;0.83;;;23.00;55.00;;;;;;5014159;28;20422;-68
2024/03/24 03:11:17;;;;;;;1.77;0.80;;;23.00;55.00;;;;;;5013913;28;20286;-69
2024/03/24 03:13:43;;;;;;;2.00;1.13;;;23.00;55.10;;;;;;5014038;28;20169;-69
2024/03/24 03:16:09;;;;;;;1.87;1.27;;;23.00;55.10;;;;;;5014186;28;20963;-69
2024/03/24 03:18:34;;;;;;;1.20;0.83;;;22.90;55.00;;;;;;5014112;28;20173;-68
2024/03/24 03:21:00;;;;;;;1.40;1.07;;;22.90;55.00;;;;;;5013794;28;20196;-68
2024/03/24 03:23:25;;;;;;;0.97;0.83;;;22.90;55.00;;;;;;5014307;28;20168;-68
2024/03/24 03:25:51;;;;;;;1.37;0.90;;;23.00;55.10;;;;;;5014231;28;20227;-69
2024/03/24 03:28:18;;;;;;;1.00;0.80;;;22.90;55.00;;;;;;5013694;28;20177;-69
2024/03/24 03:30:44;;;;;;;1.10;1.00;;;22.90;55.10;;;;;;5013380;28;20474;-69
2024/03/24 03:33:09;;;;;;;1.20;0.80;;;22.90;55.10;;;;;;5013937;28;20845;-69
2024/03/24 03:35:35;;;;;;;1.63;0.80;;;22.90;55.00;;;;;;4996004;28;20200;-69
2024/03/24 03:38:00;;;;;;;1.50;1.00;;;22.90;55.00;;;;;;5013588;28;20247;-70
2024/03/24 03:40:26;;;;;;;1.33;1.00;;;22.90;55.10;;;;;;5013276;28;20188;-68
2024/03/24 03:42:51;;;;;;;1.53;0.90;;;22.90;55.10;;;;;;5013937;28;20172;-70
2024/03/24 03:45:18;;;;;;;1.43;1.00;;;22.90;55.10;;;;;;5013581;28;20204;-69
2024/03/24 03:47:44;;;;;;;1.93;0.93;;;22.90;55.10;;;;;;4995533;28;20184;-69
2024/03/24 03:50:16;;;;;;;3.80;0.90;;;22.90;55.10;;;;;;5013203;28;20545;-70
2024/03/24 03:52:47;;;;;;;1.50;1.00;;;22.90;55.10;;;;;;5013228;28;20161;-68
2024/03/24 03:55:16;;;;;;;1.03;0.73;;;22.90;55.10;;;;;;5013209;28;20441;-70
2024/03/24 03:57:42;;;;;;;0.90;0.70;;;22.90;55.10;;;;;;5013246;28;20461;-67
2024/03/24 04:00:11;;;;;;;1.10;0.90;;;22.90;55.10;;;;;;5011884;28;20466;-69
2024/03/24 04:02:38;;;;;;;1.00;0.73;;;22.90;55.10;;;;;;4995182;28;20415;-69
2024/03/24 04:05:04;;;;;;;1.37;0.90;;;22.90;55.10;;;;;;5013186;28;20438;-69
2024/03/24 04:07:31;;;;;;;1.10;0.80;;;22.90;55.10;;;;;;4995482;28;20422;-68
2024/03/24 04:09:56;;;;;;;1.00;0.70;;;22.90;55.10;;;;;;5012760;28;20442;-69
2024/03/24 04:12:22;;;;;;;1.30;1.00;;;22.90;55.20;;;;;;5012915;28;20473;-69
2024/03/24 04:14:47;;;;;;;1.10;0.87;;;22.90;55.10;;;;;;5012941;28;20204;-67
2024/03/24 04:17:13;;;;;;;1.80;1.07;;;22.90;55.10;;;;;;4995012;28;20179;-68
2024/03/24 04:19:39;;;;;;;1.00;0.70;;;22.90;55.10;;;;;;5012772;28;20267;-69
2024/03/24 04:22:04;;;;;;;1.50;1.00;;;22.80;55.10;;;;;;5012624;28;20173;-69
2024/03/24 04:24:30;;;;;;;1.07;0.87;;;22.90;55.20;;;;;;5012793;28;20280;-69
2024/03/24 04:26:55;;;;;;;1.03;0.80;;;22.90;55.10;;;;;;5012600;28;20179;-69
2024/03/24 04:29:21;;;;;;;0.97;0.80;;;22.90;55.10;;;;;;5012557;28;20175;-68
2024/03/24 04:31:46;;;;;;;1.10;0.90;;;22.90;55.20;;;;;;5012420;28;20263;-69
2024/03/24 04:34:12;;;;;;;1.20;0.90;;;22.90;55.20;;;;;;5012555;28;20547;-67
2024/03/24 04:36:38;;;;;;;2.40;0.80;;;22.90;55.10;;;;;;5012439;28;20219;-68
2024/03/24 04:39:03;;;;;;;1.43;0.80;;;22.90;55.10;;;;;;4994856;28;20178;-68
2024/03/24 04:41:29;;;;;;;1.00;0.80;;;22.90;55.10;;;;;;5012591;28;20645;-69
2024/03/24 04:43:55;;;;;;;1.00;0.73;;;22.90;55.10;;;;;;5012635;28;20247;-68
2024/03/24 04:46:21;;;;;;;1.10;0.80;;;22.90;55.20;;;;;;4978783;28;20180;-69
2024/03/24 04:48:46;;;;;;;1.20;0.80;;;22.90;55.10;;;;;;5012199;28;20423;-68
2024/03/24 04:51:12;;;;;;;1.40;0.90;;;22.90;55.10;;;;;;5012389;28;20234;-69
2024/03/24 04:53:37;;;;;;;1.10;0.70;;;22.90;55.10;;;;;;5012671;28;20702;-68
2024/03/24 04:56:03;;;;;;;1.40;0.80;;;22.90;55.10;;;;;;5012305;28;20200;-68
2024/03/24 04:58:29;;;;;;;1.37;0.93;;;22.90;55.10;;;;;;5012440;28;20181;-68
2024/03/24 05:00:54;;;;;;;1.00;0.90;;;22.90;55.10;;;;;;5012374;28;20192;-69
2024/03/24 05:03:20;;;;;;;1.10;0.80;;;22.90;55.10;;;;;;5012210;28;20172;-67
2024/03/24 05:05:47;;;;;;;1.00;0.80;;;22.90;55.00;;;;;;5012081;28;20180;-70
2024/03/24 05:08:15;;;;;;;1.00;0.80;;;22.90;55.00;;;;;;5012538;28;20728;-70
2024/03/24 05:10:42;;;;;;;1.30;0.80;;;22.90;55.10;;;;;;5012330;28;20811;-68
2024/03/24 05:13:12;;;;;;;1.20;0.70;;;22.90;55.10;;;;;;5011970;28;20490;-69
2024/03/24 05:15:38;;;;;;;2.00;1.00;;;22.90;55.10;;;;;;5011910;28;20819;-69
2024/03/24 05:18:07;;;;;;;1.17;0.90;;;22.90;55.10;;;;;;5012417;28;20417;-69
2024/03/24 05:20:36;;;;;;;1.00;0.90;;;22.90;55.10;;;;;;5012213;28;20200;-68
2024/03/24 05:23:03;;;;;;;1.33;0.93;;;22.90;55.10;;;;;;4998121;28;20416;-68
2024/03/24 05:25:29;;;;;;;1.10;0.70;;;22.90;55.10;;;;;;4992744;28;20907;-69
2024/03/24 05:27:55;;;;;;;1.40;0.70;;;22.90;55.10;;;;;;4992500;28;20483;-68
2024/03/24 05:30:21;;;;;;;1.97;0.87;;;22.80;55.00;;;;;;4992336;28;20444;-68
2024/03/24 05:32:46;;;;;;;1.00;0.77;;;22.80;55.00;;;;;;4992509;28;20636;-68
2024/03/24 05:35:12;;;;;;;1.33;0.90;;;22.80;55.00;;;;;;4992136;28;20232;-68
2024/03/24 05:37:38;;;;;;;1.10;0.80;;;22.80;55.00;;;;;;4992264;28;20169;-68
2024/03/24 05:40:04;;;;;;;1.03;0.87;;;22.80;55.00;;;;;;4992496;28;20204;-68
2024/03/24 05:42:30;;;;;;;1.23;0.70;;;22.80;55.10;;;;;;4992088;28;20830;-68
2024/03/24 05:44:55;;;;;;;0.97;0.73;;;22.80;55.00;;;;;;4992188;28;20511;-69
2024/03/24 05:47:21;;;;;;;1.20;0.90;;;22.80;55.10;;;;;;4992338;28;20185;-68
2024/03/24 05:49:46;;;;;;;1.40;0.90;;;22.80;55.00;;;;;;4992153;28;20201;-69
2024/03/24 05:52:12;;;;;;;2.07;0.90;;;22.80;55.10;;;;;;4992617;28;20200;-68
2024/03/24 05:54:37;;;;;;;1.57;1.00;;;22.80;55.10;;;;;;4991971;28;20197;-70
2024/03/24 05:57:03;;;;;;;1.50;0.87;;;22.80;55.10;;;;;;4992433;28;20184;-68
2024/03/24 05:59:28;;;;;;;1.20;0.80;;;22.80;55.10;;;;;;4992503;28;20303;-69
2024/03/24 06:01:54;;;;;;;1.10;0.90;;;22.80;55.10;;;;;;4991985;28;20190;-68
2024/03/24 06:04:20;;;;;;;0.90;0.73;;;22.80;55.10;;;;;;4992163;28;20247;-69
2024/03/24 06:06:45;;;;;;;0.90;0.70;;;22.80;55.10;;;;;;4992337;28;20546;-68
2024/03/24 06:09:11;;;;;;;1.73;0.83;;;22.80;55.10;;;;;;4992316;28;20169;-68
2024/03/24 06:11:36;;;;;;;1.10;0.80;;;22.70;55.10;;;;;;4991962;28;20176;-69
2024/03/24 06:14:02;;;;;;;1.17;0.83;;;22.80;55.20;;;;;;4992151;28;20256;-69
2024/03/24 06:16:27;;;;;;;1.30;0.90;;;22.70;55.10;;;;;;4991893;28;20679;-69
2024/03/24 06:18:53;;;;;;;1.83;0.83;;;22.70;55.10;;;;;;4992052;28;20224;-69
2024/03/24 06:21:19;;;;;;;1.37;0.90;;;22.70;55.10;;;;;;4992483;28;20672;-69
2024/03/24 06:23:44;;;;;;;1.00;0.70;;;22.80;55.20;;;;;;4993220;28;20201;-68
2024/03/24 06:26:10;;;;;;;1.30;0.80;;;22.70;55.10;;;;;;4995479;28;20404;-69
2024/03/24 06:28:36;;;;;;;1.10;0.70;;;22.80;55.20;;;;;;4995827;28;20180;-67
2024/03/24 06:31:01;;;;;;;0.90;0.70;;;22.80;55.20;;;;;;4995214;28;20302;-68
2024/03/24 06:33:27;;;;;;;1.27;0.80;;;22.80;55.20;;;;;;4995439;28;20652;-69
2024/03/24 06:35:52;;;;;;;0.93;0.73;;;22.80;55.20;;;;;;4995117;28;20204;-69
2024/03/24 06:38:18;;;;;;;1.20;0.83;;;22.80;55.20;;;;;;4995412;28;20259;-68
2024/03/24 06:40:43;;;;;;;1.20;0.80;;;22.80;55.20;;;;;;4995424;28;20200;-69
2024/03/24 06:43:18;;;;;;;1.00;0.70;;;22.80;55.20;;;;;;4994963;28;20256;-68
2024/03/24 06:45:46;;;;;;;1.17;0.80;;;22.80;55.20;;;;;;4995158;28;20153;-68
2024/03/24 06:48:12;;;;;;;1.57;0.70;;;22.80;55.20;;;;;;4995329;28;20420;-69
2024/03/24 06:50:37;;;;;;;1.63;0.80;;;22.80;55.20;;;;;;4995016;28;20463;-70
2024/03/24 06:53:03;;;;;;;1.83;0.90;;;22.80;55.20;;;;;;4995685;28;20268;-68
2024/03/24 06:55:29;;;;;;;1.00;0.80;;;22.80;55.20;;;;;;4995004;28;20667;-69
2024/03/24 06:57:55;;;;;;;1.10;0.90;;;22.80;55.20;;;;;;4995398;28;20308;-68
2024/03/24 07:00:21;;;;;;;1.20;0.80;;;22.80;55.20;;;;;;4995056;28;21098;-68
2024/03/24 07:02:47;;;;;;;1.13;0.90;;;22.80;55.20;;;;;;4994596;28;20550;-69
2024/03/24 07:05:14;;;;;;;1.00;0.80;;;22.80;55.20;;;;;;4994882;28;20177;-69
2024/03/24 07:07:39;;;;;;;1.10;0.80;;;22.80;55.10;;;;;;4994890;28;20412;-69
2024/03/24 07:10:06;;;;;;;1.03;0.80;;;22.80;55.70;;;;;;4994975;28;20946;-68
2024/03/24 07:12:33;;;;;;;1.00;0.80;;;22.90;55.20;;;;;;4994936;28;20177;-69
2024/03/24 07:14:59;;;;;;;1.07;0.70;;;22.90;55.20;;;;;;4994490;28;20451;-69
2024/03/24 07:17:24;;;;;;;2.90;0.80;;;22.90;55.20;;;;;;4994567;28;20416;-68
2024/03/24 07:19:50;;;;;;;1.80;0.90;;;22.90;55.20;;;;;;4994569;28;20259;-69
2024/03/24 07:22:16;;;;;;;1.10;0.70;;;22.90;55.10;;;;;;4994505;28;20183;-69
2024/03/24 07:24:41;;;;;;;1.00;0.80;;;22.90;55.10;;;;;;4994145;28;20249;-69
2024/03/24 07:27:07;;;;;;;3.10;0.90;;;22.90;55.10;;;;;;4994200;28;20173;-69
2024/03/24 07:29:33;;;;;;;1.30;0.93;;;22.90;55.10;;;;;;4994557;28;20263;-68
2024/03/24 07:31:59;;;;;;;1.30;0.90;;;22.90;55.10;;;;;;4994282;28;20432;-69
2024/03/24 07:34:25;;;;;;;1.80;1.27;;;22.90;54.90;;;;;;4993597;28;20185;-69
2024/03/24 07:36:50;;;;;;;6.20;1.10;;;22.90;54.80;;;;;;4993767;28;20227;-69
2024/03/24 07:39:16;;;;;;;1.30;0.90;;;22.90;54.70;;;;;;4994043;28;20169;-68
2024/03/24 07:41:41;;;;;;;1.30;0.80;;;22.90;54.70;;;;;;4994340;28;20184;-68
2024/03/24 07:44:07;;;;;;;1.80;0.97;;;22.90;54.60;;;;;;4994037;28;20192;-70
2024/03/24 07:46:32;;;;;;;1.07;0.70;;;22.90;54.60;;;;;;4993831;28;20180;-68
2024/03/24 07:48:58;;;;;;;1.60;0.90;;;22.90;54.70;;;;;;4994020;28;20188;-70
2024/03/24 07:51:26;;;;;;;3.40;1.00;;;22.90;54.80;;;;;;4994141;28;20264;-67
2024/03/24 07:53:52;;;;;;;1.17;1.00;;;22.90;54.80;;;;;;4993929;28;20834;-68
2024/03/24 07:56:18;;;;;;;4.07;1.00;;;22.90;54.80;;;;;;4993830;28;20451;-68
2024/03/24 07:58:43;;;;;;;1.27;1.03;;;22.90;54.80;;;;;;4994014;28;20424;-69
2024/03/24 08:01:09;;;;;;;1.83;1.00;;;22.90;54.90;;;;;;4993664;28;20668;-69
2024/03/24 08:03:35;;;;;;;2.10;1.10;;;22.90;54.90;;;;;;4993893;28;20715;-69
2024/03/24 08:06:00;;;;;;;1.30;1.03;;;22.90;54.90;;;;;;4993854;28;20181;-68
2024/03/24 08:08:26;;;;;;;2.30;1.00;;;22.90;54.90;;;;;;4994198;28;20176;-69
2024/03/24 08:10:51;;;;;;;3.03;1.40;;;22.90;54.90;;;;;;4993991;28;20211;-68
2024/03/24 08:13:17;;;;;;;3.10;1.30;;;23.00;55.00;;;;;;4993571;28;20181;-68
2024/03/24 08:15:43;;;;;;;1.90;1.23;;;23.00;55.00;;;;;;4993453;28;20196;-70
2024/03/24 08:18:10;;;;;;;2.30;1.60;;;23.00;55.00;;;;;;4975958;28;20447;-69
2024/03/24 08:20:35;;;;;;;1.47;1.20;;;23.00;55.00;;;;;;4993592;28;20201;-68
2024/03/24 08:23:01;;;;;;;1.50;1.20;;;23.00;55.00;;;;;;4993268;28;20778;-69
2024/03/24 08:25:26;;;;;;;1.67;1.17;;;23.00;55.00;;;;;;4993779;28;20203;-69
2024/03/24 08:27:52;;;;;;;3.00;1.20;;;23.00;55.10;;;;;;4993023;28;20686;-70
2024/03/24 08:30:18;;;;;;;1.70;1.13;;;23.00;55.10;;;;;;4993143;28;20279;-68
2024/03/24 08:32:43;;;;;;;1.50;1.03;;;23.00;55.00;;;;;;4993357;28;20216;-70
2024/03/24 08:35:09;;;;;;;5.50;1.40;;;23.00;55.00;;;;;;4993633;28;20573;-69
2024/03/24 08:37:34;;;;;;;1.47;1.37;;;23.00;55.00;;;;;;4993648;28;20215;-69
2024/03/24 08:40:00;;;;;;;1.40;1.10;;;23.00;55.00;;;;;;4993141;28;20201;-69
2024/03/24 08:42:26;;;;;;;3.00;1.30;;;23.00;55.00;;;;;;4993681;28;20177;-68
2024/03/24 08:44:52;;;;;;;1.70;1.30;;;23.00;55.00;;;;;;4993366;28;20184;-69
2024/03/24 08:47:17;;;;;;;1.70;1.40;;;23.00;55.00;;;;;;4993102;28;20273;-69
2024/03/24 08:49:43;;;;;;;2.17;1.20;;;23.00;55.00;;;;;;4992729;28;20970;-69
2024/03/24 08:52:09;;;;;;;1.93;1.33;;;23.00;55.00;;;;;;4992279;28;20280;-69
2024/03/24 08:54:34;;;;;;;1.30;1.20;;;23.00;55.00;;;;;;4974738;28;20295;-68
2024/03/24 08:57:00;;;;;;;2.10;1.17;;;23.00;55.00;;;;;;4974530;28;20628;-68
2024/03/24 08:59:25;;;;;;;3.37;1.50;;;23.00;55.00;;;;;;4992437;28;20264;-70
2024/03/24 09:01:51;;;;;;;1.93;1.50;;;23.00;55.00;;;;;;4992668;28;20664;-69
2024/03/24 09:04:16;;;;;;;1.70;1.10;;;23.00;55.00;;;;;;4992323;28;20706;-70
2024/03/24 09:06:43;;;;;;;1.80;1.60;;;23.00;55.00;;;;;;4992716;28;20181;-67
2024/03/24 09:09:09;;;;;;;1.57;1.10;;;23.00;55.00;;;;;;4992917;28;20184;-69
2024/03/24 09:11:35;;;;;;;1.40;1.13;;;23.00;55.50;;;;;;4992919;28;20416;-69
2024/03/24 09:14:00;;;;;;;1.57;1.10;;;23.00;55.00;;;;;;4992750;28;20259;-68
2024/03/24 09:16:26;;;;;;;1.23;1.10;;;23.00;55.00;;;;;;4992651;28;20207;-69
2024/03/24 09:18:52;;;;;;;1.53;1.10;;;23.00;55.00;;;;;;4993088;28;20180;-68
2024/03/24 09:21:18;;;;;;;1.83;1.10;;;23.00;55.00;;;;;;4992443;28;20220;-69
2024/03/24 09:23:43;;;;;;;3.00;1.67;;;23.00;55.00;;;;;;4993060;28;20460;-69
2024/03/24 09:26:09;;;;;;;1.47;1.13;;;23.00;55.00;;;;;;4992552;28;20183;-68
2024/03/24 09:28:35;;;;;;;1.80;1.30;;;23.00;55.00;;;;;;4992950;28;20196;-66
2024/03/24 09:31:06;;;;;;;2.23;1.40;;;23.00;55.00;;;;;;4992999;28;21004;-68
2024/03/24 09:33:32;;;;;;;2.90;1.40;;;23.00;55.00;;;;;;4992229;28;20165;-68
2024/03/24 09:36:01;;;;;;;1.70;1.40;;;23.00;55.00;;;;;;4992775;28;20471;-69
2024/03/24 09:38:27;;;;;;;2.00;1.07;;;23.00;55.00;;;;;;4992203;28;20169;-69
2024/03/24 09:40:53;;;;;;;1.90;1.13;;;23.10;55.10;;;;;;4992343;28;20852;-69
2024/03/24 09:43:19;;;;;;;1.97;1.30;;;23.00;55.00;;;;;;4992351;28;20561;-69
2024/03/24 09:45:45;;;;;;;2.40;1.90;;;23.00;55.00;;;;;;4992159;28;20412;-68
2024/03/24 09:48:13;;;;;;;4.30;1.70;;;23.10;55.10;;;;;;4992189;28;20423;-70
2024/03/24 09:50:39;;;;;;;2.40;1.40;;;23.10;55.10;;;;;;4991837;28;20224;-69
2024/03/24 09:53:05;;;;;;;2.90;1.50;;;23.10;55.10;;;;;;4991939;28;20412;-69
2024/03/24 09:55:30;;;;;;;2.37;2.03;;;23.10;55.10;;;;;;4992135;28;20467;-68
2024/03/24 09:57:57;;;;;;;1.80;1.40;;;23.10;55.10;;;;;;4992259;28;20571;-70
2024/03/24 10:00:23;;;;;;;1.40;1.23;;;23.10;55.60;;;;;;4995778;28;20260;-70
2024/03/24 10:02:53;;;;;;;2.13;1.67;;;23.10;55.10;;;;;;4995860;28;20431;-69
2024/03/24 10:05:19;;;;;;;1.40;1.13;;;23.10;55.00;;;;;;4995942;28;21085;-69
2024/03/24 10:07:45;;;;;;;1.90;1.40;;;23.10;55.00;;;;;;4995696;28;20934;-69
2024/03/24 10:10:13;;;;;;;2.10;1.37;;;23.10;54.90;;;;;;4995722;28;20435;-69
2024/03/24 10:12:38;;;;;;;1.90;1.20;;;23.10;54.90;;;;;;4995559;28;20507;-69
2024/03/24 10:15:18;;;;;;;1.23;1.00;;;23.10;54.90;;;;;;4995374;28;20587;-69
2024/03/24 10:17:43;;;;;;;2.20;1.20;;;23.10;54.80;;;;;;4995570;28;20223;-70
2024/03/24 10:20:16;;;;;;;1.83;1.30;;;23.10;54.90;;;;;;4995232;28;20444;-69
2024/03/24 10:22:54;;;;;;;1.53;1.10;;;23.10;54.80;;;;;;4995180;28;20181;-69
2024/03/24 10:25:28;;;;;;;1.67;1.13;;;23.10;54.80;;;;;;4995345;28;20531;-70
2024/03/24 10:27:55;;;;;;;5.07;1.50;;;23.10;54.80;;;;;;4995297;28;20513;-69
2024/03/24 10:30:21;;;;;;;1.43;1.10;;;23.10;54.80;;;;;;4995446;28;20444;-68
2024/03/24 10:32:47;;;;;;;1.60;1.00;;;23.10;54.90;;;;;;4995150;28;20416;-70
2024/03/24 10:35:16;;;;;;;2.63;1.57;;;23.10;54.90;;;;;;4995123;28;20463;-69
2024/03/24 10:37:43;;;;;;;3.80;1.50;;;23.10;54.90;;;;;;4995050;28;20413;-69
2024/03/24 10:40:16;;;;;;;2.50;1.50;;;23.10;54.80;;;;;;4995427;28;20447;-69
2024/03/24 10:42:47;;;;;;;3.90;1.57;;;23.10;54.70;;;;;;4995124;28;20396;-68
2024/03/24 10:45:14;;;;;;;2.80;2.30;;;23.10;54.70;;;;;;4994913;28;20824;-67
2024/03/24 10:47:46;;;;;;;5.13;1.87;;;23.00;54.60;;;;;;4977337;28;20412;-68
2024/03/24 10:50:14;;;;;;;3.47;1.57;;;23.10;54.80;;;;;;4976633;28;20599;-69
2024/03/24 10:52:42;;;;;;;3.23;1.67;;;23.10;54.80;;;;;;4994558;28;20428;-68
2024/03/24 10:55:10;;;;;;;7.20;1.90;;;23.10;54.80;;;;;;4994569;28;20478;-67
2024/03/24 10:57:39;;;;;;;1.80;1.43;;;23.10;54.90;;;;;;4994674;28;20555;-70
2024/03/24 11:00:06;;;;;;;1.83;1.27;;;23.10;54.90;;;;;;4994575;28;20432;-70
2024/03/24 11:02:32;;;;;;;2.63;1.40;;;23.10;54.90;;;;;;4994579;28;20495;-69
2024/03/24 11:05:00;;;;;;;2.97;1.70;;;23.10;54.90;;;;;;4994482;28;20962;-67
2024/03/24 11:07:27;;;;;;;6.60;1.67;;;23.10;54.90;;;;;;4994729;28;20934;-68
2024/03/24 11:09:53;;;;;;;2.37;1.30;;;23.10;54.90;;;;;;4977227;28;20454;-68
2024/03/24 11:12:19;;;;;;;2.00;1.47;;;23.10;54.90;;;;;;4994247;28;20420;-68
2024/03/24 11:14:45;;;;;;;1.83;1.07;;;23.10;54.90;;;;;;4994195;28;20455;-68
2024/03/24 11:17:12;;;;;;;2.07;1.43;;;23.10;54.90;;;;;;4993667;28;20439;-69
2024/03/24 11:19:46;;;;;;;4.50;1.70;;;23.10;55.00;;;;;;4994489;28;20251;-68
2024/03/24 11:22:14;;;;;;;3.00;1.57;;;23.10;55.00;;;;;;4994940;28;20400;-68
2024/03/24 11:24:40;;;;;;;3.67;2.23;;;23.10;55.00;;;;;;4994278;28;20416;-68
2024/03/24 11:27:10;;;;;;;1.60;1.13;;;23.10;54.90;;;;;;4994103;28;20420;-67
2024/03/24 11:29:45;;;;;;;2.90;1.30;;;23.10;54.90;;;;;;4994892;28;20436;-67
2024/03/24 11:32:17;;;;;;;3.77;2.10;;;23.10;54.90;;;;;;4994212;28;20461;-67
2024/03/24 11:34:57;;;;;;;3.33;1.40;;;23.10;54.90;;;;;;4994446;28;20875;-67
2024/03/24 11:37:34;;;;;;;3.43;1.67;;;23.10;54.90;;;;;;4994831;28;20487;-68
2024/03/24 11:39:59;;;;;;;2.97;1.60;;;23.10;54.90;;;;;;4995108;28;20438;-70
2024/03/24 11:42:33;;;;;;;2.60;1.33;;;23.10;54.90;;;;;;4994448;28;20915;-71
2024/03/24 11:45:42;;;;;;;2.40;1.40;;;23.10;54.90;;;;;;4993829;28;20800;-71
2024/03/24 11:48:16;;;;;;;4.60;2.07;;;23.10;54.90;;;;;;4993160;28;20761;-70
2024/03/24 11:50:43;;;;;;;3.30;1.70;;;23.00;54.90;;;;;;4992990;28;20455;-69
2024/03/24 11:53:10;;;;;;;2.27;1.37;;;23.00;54.90;;;;;;4992968;28;20491;-70
2024/03/24 11:55:38;;;;;;;6.37;1.80;;;23.00;54.90;;;;;;4993650;28;20859;-70
2024/03/24 11:58:04;;;;;;;2.90;1.37;;;23.00;54.90;;;;;;4993164;28;20417;-71
2024/03/24 12:00:30;;;;;;;2.07;1.43;;;23.00;55.00;;;;;;4993053;28;20428;-70
2024/03/24 12:02:56;;;;;;;5.57;2.03;;;23.10;55.00;;;;;;4992902;28;20405;-71
2024/03/24 12:05:22;;;;;;;4.27;1.97;;;23.10;55.00;;;;;;4975485;28;20452;-70
2024/03/24 12:07:48;;;;;;;3.17;1.50;;;23.10;55.00;;;;;;4992921;28;20499;-70
2024/03/24 12:10:14;;;;;;;2.87;1.53;;;23.10;55.00;;;;;;4992892;28;20292;-70
2024/03/24 12:12:41;;;;;;;2.50;1.50;;;23.10;55.00;;;;;;4992817;28;20795;-69
2024/03/24 12:15:07;;;;;;;2.60;1.37;;;23.10;55.10;;;;;;4992716;28;20495;-69
2024/03/24 12:17:33;;;;;;;2.60;1.30;;;23.10;55.10;;;;;;4992779;28;20408;-71
2024/03/24 12:20:01;;;;;;;4.27;1.37;;;23.10;55.00;;;;;;4992737;28;20536;-70
2024/03/24 12:22:27;;;;;;;2.60;1.30;;;23.10;55.00;;;;;;4992042;28;20712;-71
2024/03/24 12:24:53;;;;;;;3.03;1.77;;;23.10;55.00;;;;;;4992935;28;20412;-70
2024/03/24 12:27:20;;;;;;;1.77;1.00;;;23.10;55.00;;;;;;4992880;28;20177;-70
2024/03/24 12:29:55;;;;;;;1.70;1.30;;;23.10;55.00;;;;;;4992906;28;20440;-70
2024/03/24 12:32:24;;;;;;;3.63;1.77;;;23.10;55.00;;;;;;4992901;28;20412;-70
2024/03/24 12:34:50;;;;;;;3.00;1.37;;;23.10;55.00;;;;;;4992734;28;20532;-69
2024/03/24 12:37:17;;;;;;;2.40;1.23;;;23.10;55.00;;;;;;4993126;28;21045;-70
2024/03/24 12:39:48;;;;;;;1.93;1.10;;;23.10;55.00;;;;;;4992816;28;20204;-69
2024/03/24 12:42:14;;;;;;;2.00;1.07;;;23.10;55.00;;;;;;4993015;28;20389;-69
2024/03/24 12:44:40;;;;;;;1.43;1.10;;;23.10;55.00;;;;;;4992804;28;20490;-71